Dickinson Theodore Roosevelt Regional Airport Dickinson US
ICAO: KDIK
IATA: DIK
Category: Medium
Scheduled Services: No

Elevation: 2592 ft
TransAlt. 18000 ft.

Airport Communications:
MINNEAPOLIS CNTR:124.25
GRAND FORKS RDO:122.2
CTAF/UNICOM:123

KDIK Zoom In..

If you have problems with the map follow the link
https://www.worldairports.se/pages/airport.php?
ICAO=KDIK

Runways:

(A) RW 07 length 4699 ft width 75 ft
---- / hdg 70

(B) RW 14 length 6399 ft width 100 ft
---- / hdg 140

(C) RW 25 length 4699 ft width 75 ft
---- / hdg 250

(D) RW 32 length 6399 ft width 100 ft
ILS 108.30 / hdg 320

Location; KDIK
Day. 14 / Time. 17.56 Zulu
* Altimeter: 29.89
* Temperature: -15° c. -5°f.
* Wind from: 160° Speed 10 kn.
Dewpoint: -18° c.
Visibility: 1 m.
Clouds: Broken 2700 ft.
Clouds: Overcast 3800 ft.
Conditions: Light Snow.

KDIK 141756Z AUTO 16010KT 1 3/4SM -SN BKN027 OVC038 M15/M18 A2989 RMK AO2 SLP182 P0000 60000 T11501183 11150 21172 58006


Wind From 160°
Speed 10 kn.

 
 
jpsmedia worldairports.se 2019   terms of use